createdAt,value
2019-04-04T00:01:38.623Z,54.73
2019-04-04T00:04:06.412Z,54.69
2019-04-04T00:06:35.480Z,55.04
2019-04-04T00:09:02.689Z,55.34
2019-04-04T00:11:32.571Z,55.47
2019-04-04T00:14:01.112Z,55.25
2019-04-04T00:16:30.281Z,55.54
2019-04-04T00:18:59.064Z,55.31
2019-04-04T00:21:26.280Z,54.88
2019-04-04T00:23:56.688Z,55.36
2019-04-04T00:26:23.759Z,55.37
2019-04-04T00:28:53.185Z,54.78
2019-04-04T00:31:19.797Z,54.65
2019-04-04T00:33:48.917Z,54.62
2019-04-04T00:36:18.258Z,55.60
2019-04-04T00:38:44.854Z,55.88
2019-04-04T00:41:15.210Z,55.82
2019-04-04T00:43:43.392Z,56.14
2019-04-04T00:46:10.315Z,55.79
2019-04-04T00:48:38.974Z,55.95
2019-04-04T00:51:08.625Z,56.29
2019-04-04T00:53:36.503Z,56.61
2019-04-04T00:56:05.346Z,57.28
2019-04-04T00:58:31.940Z,57.51
2019-04-04T01:01:01.230Z,56.50
2019-04-04T01:03:30.811Z,56.83
2019-04-04T01:05:58.177Z,57.41
2019-04-04T01:08:28.215Z,57.93
2019-04-04T01:10:58.644Z,58.29
2019-04-04T01:13:27.548Z,58.09
2019-04-04T01:15:54.747Z,57.11
2019-04-04T01:18:25.436Z,57.06
2019-04-04T01:20:55.728Z,56.76
2019-04-04T01:23:22.371Z,56.80
2019-04-04T01:25:53.969Z,56.59
2019-04-04T01:28:23.296Z,57.28
2019-04-04T01:30:51.326Z,57.81
2019-04-04T01:33:19.696Z,57.16
2019-04-04T01:35:53.788Z,57.26
2019-04-04T01:38:23.737Z,57.51
2019-04-04T01:40:54.886Z,57.76
2019-04-04T01:43:24.276Z,57.96
2019-04-04T01:45:53.291Z,57.83
2019-04-04T01:48:21.491Z,58.28
2019-04-04T01:50:53.401Z,58.25
2019-04-04T01:53:21.856Z,58.15
2019-04-04T01:55:53.988Z,57.94
2019-04-04T01:58:22.847Z,58.04
2019-04-04T02:00:52.710Z,58.25
2019-04-04T02:03:22.410Z,58.83
2019-04-04T02:05:49.640Z,58.81
2019-04-04T02:08:17.747Z,58.84
2019-04-04T02:10:44.332Z,58.66
2019-04-04T02:13:11.286Z,58.66
2019-04-04T02:15:37.866Z,57.67
2019-04-04T02:18:07.254Z,57.78
2019-04-04T02:20:35.054Z,58.13
2019-04-04T02:23:05.446Z,58.61
2019-04-04T02:25:35.682Z,59.29
2019-04-04T02:28:04.324Z,58.38
2019-04-04T02:30:30.931Z,58.88
2019-04-04T02:33:00.473Z,59.36
2019-04-04T02:35:28.323Z,59.42
2019-04-04T02:37:56.201Z,59.26
2019-04-04T02:40:25.641Z,59.22
2019-04-04T02:42:55.230Z,59.27
2019-04-04T02:45:21.173Z,59.36
2019-04-04T02:47:51.211Z,59.97
2019-04-04T02:50:16.355Z,60.46
2019-04-04T02:52:46.008Z,60.94
2019-04-04T02:55:14.352Z,61.82
2019-04-04T02:57:42.396Z,60.92
2019-04-04T03:00:11.979Z,60.72
2019-04-04T03:02:38.589Z,60.77
2019-04-04T03:05:06.214Z,60.59
2019-04-04T03:07:33.067Z,60.08
2019-04-04T03:10:03.688Z,59.38
2019-04-04T03:12:34.009Z,59.10
2019-04-04T03:15:03.844Z,58.56
2019-04-04T03:17:32.667Z,59.33
2019-04-04T03:20:00.432Z,59.03
2019-04-04T03:22:39.443Z,59.48
2019-04-04T03:25:14.919Z,59.89
2019-04-04T03:27:41.692Z,60.01
2019-04-04T03:30:13.238Z,59.80
2019-04-04T03:32:39.266Z,59.58
2019-04-04T03:35:07.215Z,59.52
2019-04-04T03:37:34.060Z,58.85
2019-04-04T03:40:03.233Z,59.17
2019-04-04T03:42:31.911Z,59.14
2019-04-04T03:44:58.628Z,59.46
2019-04-04T03:47:25.565Z,59.72
2019-04-04T03:49:56.931Z,59.30
2019-04-04T03:52:24.519Z,59.46
2019-04-04T03:54:56.328Z,59.98
2019-04-04T03:57:25.365Z,60.18
2019-04-04T03:59:51.897Z,60.47
2019-04-04T04:02:22.269Z,60.37
2019-04-04T04:04:48.881Z,60.21
2019-04-04T04:07:19.831Z,61.13
2019-04-04T04:09:49.778Z,62.01
2019-04-04T04:12:16.368Z,62.55
2019-04-04T04:14:43.952Z,63.50
2019-04-04T04:20:03.308Z,62.57
2019-04-04T04:22:28.636Z,63.20
2019-04-04T04:24:56.613Z,63.07
2019-04-04T04:27:24.248Z,62.65
2019-04-04T04:29:51.730Z,62.04
2019-04-04T04:32:22.745Z,61.48
2019-04-04T04:34:51.879Z,61.89
2019-04-04T04:37:22.136Z,61.96
2019-04-04T04:39:49.746Z,61.21
2019-04-04T04:42:21.125Z,60.19
2019-04-04T04:44:47.099Z,60.33
2019-04-04T04:47:14.687Z,60.64
2019-04-04T04:49:42.515Z,60.92
2019-04-04T04:52:09.774Z,60.40
2019-04-04T04:54:42.565Z,60.01
2019-04-04T04:59:59.367Z,59.49
2019-04-04T05:02:27.216Z,60.14
2019-04-04T05:04:54.003Z,59.92
2019-04-04T05:07:21.189Z,59.81
2019-04-04T05:09:48.884Z,59.47
2019-04-04T07:18:36.802Z,47.75
2019-04-04T07:21:03.771Z,46.57
2019-04-04T07:23:30.718Z,45.92
2019-04-04T07:25:57.448Z,45.82
2019-04-04T07:28:24.082Z,45.95
2019-04-04T07:30:50.940Z,46.09
2019-04-04T07:33:17.701Z,46.21
2019-04-04T07:35:44.292Z,45.38
2019-04-04T07:38:10.903Z,46.12
2019-04-04T07:40:38.363Z,45.12
2019-04-04T07:43:04.928Z,45.56
2019-04-04T07:45:31.525Z,45.62
2019-04-04T07:47:59.376Z,44.72
2019-04-04T07:50:27.066Z,45.26
2019-04-04T07:52:54.159Z,45.53
2019-04-04T07:55:21.004Z,45.97
2019-04-04T07:57:50.917Z,45.93
2019-04-04T08:00:16.247Z,45.21
2019-04-04T08:02:42.886Z,45.70
2019-04-04T08:05:12.901Z,46.30
2019-04-04T08:07:38.567Z,45.97
2019-04-04T08:10:05.454Z,45.00
2019-04-04T08:12:32.075Z,45.91
2019-04-04T08:14:58.864Z,45.10
2019-04-04T08:17:25.626Z,45.73
2019-04-04T08:19:59.561Z,46.25
2019-04-04T08:22:20.896Z,46.09
2019-04-04T08:24:47.616Z,46.21
2019-04-04T08:27:14.253Z,46.22
2019-04-04T08:29:41.155Z,44.49
2019-04-04T08:32:07.780Z,44.91
2019-04-04T08:34:36.541Z,44.89
2019-04-04T08:37:03.188Z,43.85
2019-04-04T08:39:29.933Z,44.29
2019-04-04T08:41:56.562Z,43.49
2019-04-04T08:44:23.156Z,42.62
2019-04-04T08:46:49.862Z,42.92
2019-04-04T08:49:16.671Z,42.19
2019-04-04T08:51:43.839Z,41.66
2019-04-04T08:54:10.456Z,42.58
2019-04-04T08:56:37.378Z,42.53
2019-04-04T08:59:03.966Z,41.34
2019-04-04T09:01:30.631Z,40.81
2019-04-04T09:03:57.384Z,41.81
2019-04-04T09:06:24.322Z,41.66
2019-04-04T09:08:51.268Z,40.88
2019-04-04T09:11:17.912Z,41.76
2019-04-04T09:13:44.739Z,42.67
2019-04-04T09:16:11.369Z,41.40
2019-04-04T09:18:39.201Z,42.19
2019-04-04T09:21:05.953Z,42.62
2019-04-04T09:23:32.791Z,41.75
2019-04-04T09:26:05.942Z,40.68
2019-04-04T09:28:28.952Z,39.91
2019-04-04T09:30:55.926Z,41.28
2019-04-04T09:33:35.133Z,40.11
2019-04-04T09:36:01.863Z,40.24
2019-04-04T09:38:29.959Z,40.51
2019-04-04T09:40:56.821Z,39.66
2019-04-04T09:43:23.449Z,40.04
2019-04-04T09:45:50.077Z,39.60
2019-04-04T09:48:17.191Z,39.19
2019-04-04T09:50:44.100Z,38.74
2019-04-04T09:53:10.710Z,39.33
2019-04-04T09:55:37.357Z,39.76
2019-04-04T09:58:03.970Z,39.84
2019-04-04T10:00:35.564Z,40.79
2019-04-04T10:03:02.730Z,38.20
2019-04-04T10:05:29.657Z,38.37
2019-04-04T10:07:56.580Z,37.60
2019-04-04T10:10:23.370Z,38.62
2019-04-04T10:12:49.970Z,37.44
2019-04-04T10:15:17.564Z,37.75
2019-04-04T10:17:44.744Z,37.35
2019-04-04T10:20:11.335Z,36.67
2019-04-04T10:22:38.418Z,36.30
2019-04-04T10:25:05.004Z,36.10
2019-04-04T10:27:31.900Z,35.83
2019-04-04T10:29:58.807Z,36.21
2019-04-04T10:32:25.612Z,35.93
2019-04-04T10:34:52.275Z,35.88
2019-04-04T10:37:19.035Z,36.26
2019-04-04T10:39:47.706Z,35.92
2019-04-04T10:42:14.297Z,34.86
2019-04-04T10:44:45.121Z,34.65
2019-04-04T10:47:12.608Z,34.60
2019-04-04T10:49:39.437Z,32.43
2019-04-04T10:52:06.357Z,33.65
2019-04-04T10:54:33.577Z,33.26
2019-04-04T10:57:00.450Z,34.10
2019-04-04T10:59:28.336Z,34.95
2019-04-04T11:01:55.141Z,33.80
2019-04-04T11:04:22.102Z,33.91
2019-04-04T11:06:49.268Z,35.11
2019-04-04T11:09:16.169Z,34.10
2019-04-04T11:11:45.381Z,33.43
2019-04-04T11:14:12.294Z,33.38
2019-04-04T11:16:39.452Z,33.56
2019-04-04T11:19:06.221Z,33.99
2019-04-04T11:21:33.109Z,33.77
2019-04-04T11:24:00.526Z,33.51
2019-04-04T11:26:27.512Z,33.27
2019-04-04T11:28:57.113Z,34.29
2019-04-04T11:31:26.245Z,33.67
2019-04-04T11:33:54.228Z,33.80
2019-04-04T11:36:21.341Z,33.89
2019-04-04T11:38:51.494Z,34.05
2019-04-04T11:41:20.489Z,34.71
2019-04-04T11:43:55.489Z,35.25
2019-04-04T11:46:23.802Z,35.84
2019-04-04T11:48:53.258Z,35.09
2019-04-04T11:51:23.174Z,36.02
2019-04-04T11:53:54.222Z,35.54
2019-04-04T11:56:22.832Z,35.77
2019-04-04T11:58:51.918Z,36.01
2019-04-04T12:01:22.075Z,35.25
2019-04-04T12:03:51.315Z,35.22
2019-04-04T12:06:18.583Z,35.23
2019-04-04T12:08:45.532Z,35.54
2019-04-04T12:11:12.130Z,35.84
2019-04-04T12:13:39.252Z,36.55
2019-04-04T12:16:08.970Z,37.58
2019-04-04T12:18:39.482Z,37.77
2019-04-04T12:21:09.127Z,38.24
2019-04-04T12:23:35.868Z,38.29
2019-04-04T12:26:04.950Z,38.71
2019-04-04T12:28:35.630Z,39.15
2019-04-04T12:31:03.775Z,40.19
2019-04-04T12:33:32.901Z,40.29
2019-04-04T12:36:03.099Z,40.56
2019-04-04T12:38:29.967Z,40.52
2019-04-04T12:40:59.093Z,40.37
2019-04-04T12:43:28.710Z,40.11
2019-04-04T12:45:58.067Z,40.68
2019-04-04T12:48:25.130Z,40.69
2019-04-04T12:50:56.035Z,41.12
2019-04-04T12:53:22.728Z,41.02
2019-04-04T12:55:54.198Z,40.82
2019-04-04T12:58:21.172Z,41.24
2019-04-04T13:00:47.937Z,40.97
2019-04-04T13:03:16.579Z,41.22
2019-04-04T13:05:47.657Z,40.92
2019-04-04T13:08:16.494Z,41.17
2019-04-04T13:10:44.158Z,41.26
2019-04-04T13:13:13.121Z,40.67
2019-04-04T13:15:39.779Z,39.93
2019-04-04T13:18:07.626Z,39.73
2019-04-04T13:20:34.650Z,39.38
2019-04-04T13:23:01.594Z,39.55
2019-04-04T13:25:28.285Z,40.08
2019-04-04T13:28:04.405Z,40.32
2019-04-04T13:30:31.774Z,40.16
2019-04-04T13:33:03.548Z,40.50
2019-04-04T13:35:33.675Z,40.77
2019-04-04T13:38:04.593Z,40.40
2019-04-04T13:40:44.517Z,40.99
2019-04-04T13:43:08.301Z,39.52
2019-04-04T13:45:36.568Z,39.87
2019-04-04T13:48:04.452Z,39.09
2019-04-04T13:50:33.776Z,37.98
2019-04-04T13:53:00.611Z,38.19
2019-04-04T13:55:31.879Z,37.16
2019-04-04T13:57:58.835Z,36.61
2019-04-04T14:00:25.678Z,36.96
2019-04-04T14:02:52.808Z,35.96
2019-04-04T14:05:19.721Z,36.33
2019-04-04T14:07:46.569Z,36.36
2019-04-04T14:10:16.910Z,35.65
2019-04-04T14:12:42.485Z,36.52
2019-04-04T14:15:09.362Z,36.94
2019-04-04T14:17:36.336Z,36.14
2019-04-04T14:20:03.021Z,37.66
2019-04-04T14:22:30.172Z,38.35
2019-04-04T14:24:56.843Z,37.73
2019-04-04T14:27:26.985Z,37.54
2019-04-04T14:29:55.193Z,37.45
2019-04-04T14:32:21.339Z,37.71
2019-04-04T14:34:48.013Z,37.76
2019-04-04T14:37:14.857Z,37.44
2019-04-04T14:39:42.024Z,37.48
2019-04-04T14:42:08.997Z,37.74
2019-04-04T14:44:36.226Z,37.17
2019-04-04T14:47:03.052Z,37.17
2019-04-04T14:49:29.929Z,37.67
2019-04-04T14:51:56.794Z,37.51
2019-04-04T14:54:23.522Z,37.92
2019-04-04T14:56:50.856Z,38.31
2019-04-04T14:59:17.778Z,37.73
2019-04-04T15:01:44.630Z,38.76
2019-04-04T15:04:11.702Z,38.70
2019-04-04T15:06:38.577Z,38.36
2019-04-04T15:09:05.465Z,38.45
2019-04-04T15:11:32.351Z,38.45
2019-04-04T15:13:59.204Z,38.05
2019-04-04T15:16:25.860Z,38.61
2019-04-04T15:18:52.490Z,38.23
2019-04-04T15:21:19.438Z,38.32
2019-04-04T15:23:46.142Z,38.07
2019-04-04T15:26:12.891Z,38.87
2019-04-04T15:28:39.759Z,38.68
2019-04-04T15:31:06.587Z,39.24
2019-04-04T15:33:33.242Z,39.36
2019-04-04T15:35:59.823Z,38.10
2019-04-04T15:38:26.688Z,38.02
2019-04-04T15:40:53.347Z,38.19
2019-04-04T15:43:20.006Z,38.54
2019-04-04T15:45:46.656Z,39.04
2019-04-04T15:48:13.655Z,39.28
2019-04-04T15:50:40.284Z,39.39
2019-04-04T15:53:08.486Z,39.69
2019-04-04T15:55:35.129Z,39.46
2019-04-04T15:58:01.709Z,39.19
2019-04-04T16:00:32.738Z,39.42
2019-04-04T16:03:01.976Z,40.07
2019-04-04T16:05:33.182Z,40.42
2019-04-04T16:08:05.883Z,40.23
2019-04-04T16:10:32.673Z,39.46
2019-04-04T16:13:02.434Z,39.83
2019-04-04T16:15:31.659Z,39.45
2019-04-04T16:18:01.182Z,38.87
2019-04-04T16:20:30.721Z,39.01
2019-04-04T16:23:00.651Z,39.29
2019-04-04T16:25:29.387Z,39.33
2019-04-04T16:27:58.016Z,39.36
2019-04-04T16:30:27.221Z,40.23
2019-04-04T16:32:54.580Z,39.99
2019-04-04T16:35:23.451Z,40.28
2019-04-04T16:37:52.141Z,40.40
2019-04-04T16:40:18.749Z,40.96
2019-04-04T16:42:45.335Z,40.85
2019-04-04T16:45:12.220Z,40.52
2019-04-04T16:47:40.904Z,40.71
2019-04-04T16:50:10.853Z,40.76
2019-04-04T16:55:32.348Z,41.05
2019-04-04T16:58:00.252Z,41.21
2019-04-04T17:00:28.350Z,40.92
2019-04-04T17:02:56.589Z,40.79
2019-04-04T17:05:23.441Z,40.77
2019-04-04T17:07:50.046Z,41.00
2019-04-04T17:10:17.865Z,40.63
2019-04-04T17:12:44.578Z,40.66
2019-04-04T17:15:15.253Z,40.98
2019-04-04T17:17:43.590Z,40.91
2019-04-04T17:20:12.912Z,41.40
2019-04-04T17:22:43.457Z,41.55
2019-04-04T17:25:11.145Z,41.65
2019-04-04T17:27:37.756Z,41.59
2019-04-04T17:30:05.031Z,41.64
2019-04-04T17:32:33.126Z,41.61
2019-04-04T17:35:02.847Z,41.76
2019-04-04T17:37:32.019Z,41.97
2019-04-04T17:39:58.727Z,42.11
2019-04-04T17:42:32.095Z,42.66
2019-04-04T17:45:02.626Z,43.15
2019-04-04T17:47:29.637Z,43.08
2019-04-04T17:49:56.326Z,43.59
2019-04-04T17:52:22.924Z,43.28
2019-04-04T17:54:50.022Z,42.94
2019-04-04T17:57:16.909Z,43.18
2019-04-04T17:59:43.498Z,43.13
2019-04-04T18:02:12.534Z,42.88
2019-04-04T18:04:48.343Z,42.78
2019-04-04T18:07:08.138Z,43.03
2019-04-04T18:09:34.793Z,43.21
2019-04-04T18:14:33.039Z,43.37
2019-04-04T18:16:59.902Z,43.32
2019-04-04T18:19:26.779Z,43.65
2019-04-04T18:21:53.370Z,44.02
2019-04-04T18:24:20.228Z,43.26
2019-04-04T18:26:47.221Z,42.75
2019-04-04T18:29:14.172Z,42.81
2019-04-04T18:31:41.150Z,42.78
2019-04-04T18:34:08.837Z,42.40
2019-04-04T18:36:35.973Z,42.88
2019-04-04T18:39:02.720Z,42.28
2019-04-04T18:41:29.580Z,42.38
2019-04-04T18:43:56.367Z,42.13
2019-04-04T18:46:23.089Z,42.11
2019-04-04T18:48:49.875Z,42.20
2019-04-04T18:51:16.459Z,42.34
2019-04-04T18:53:43.406Z,42.34
2019-04-04T18:56:10.114Z,42.51
2019-04-04T18:58:36.703Z,42.72
2019-04-04T19:01:03.383Z,42.58
2019-04-04T19:03:30.043Z,42.56
2019-04-04T19:05:56.625Z,42.30
2019-04-04T19:08:23.802Z,42.08
2019-04-04T19:10:50.660Z,41.97
2019-04-04T19:13:21.974Z,42.01
2019-04-04T19:15:49.279Z,41.95
2019-04-04T19:18:15.920Z,42.12
2019-04-04T19:20:42.609Z,42.08
2019-04-04T19:23:09.217Z,42.34
2019-04-04T19:25:35.827Z,42.71
2019-04-04T19:28:02.449Z,42.88
2019-04-04T19:30:29.332Z,42.72
2019-04-04T19:32:56.051Z,43.17
2019-04-04T19:35:22.984Z,43.30
2019-04-04T19:38:00.066Z,43.84
2019-04-04T19:40:18.968Z,43.71
2019-04-04T19:42:49.727Z,43.63
2019-04-04T19:45:16.930Z,43.76
2019-04-04T19:47:43.600Z,44.17
2019-04-04T19:50:10.378Z,44.29
2019-04-04T19:52:37.076Z,44.31
2019-04-04T19:55:03.670Z,44.55
2019-04-04T19:57:30.515Z,44.75
2019-04-04T19:59:57.260Z,45.20
2019-04-04T20:02:24.133Z,45.42
2019-04-04T20:07:34.794Z,46.55
2019-04-04T20:10:01.394Z,46.37
2019-04-04T20:12:28.024Z,46.17
2019-04-04T20:14:54.745Z,46.02
2019-04-04T20:17:21.347Z,46.03
2019-04-04T20:19:47.932Z,45.74
2019-04-04T20:22:14.789Z,46.12
2019-04-04T20:24:41.684Z,47.03
2019-04-04T20:27:08.338Z,47.12
2019-04-04T20:29:35.182Z,47.16
2019-04-04T20:32:01.763Z,47.13
2019-04-04T20:34:28.671Z,47.48
2019-04-04T20:36:55.608Z,47.93
2019-04-04T20:39:22.189Z,48.40
2019-04-04T20:41:48.807Z,48.46
2019-04-04T20:44:15.385Z,48.59
2019-04-04T20:46:42.171Z,48.60
2019-04-04T20:49:09.230Z,48.80
2019-04-04T20:51:36.141Z,49.11
2019-04-04T20:54:02.806Z,48.95
2019-04-04T20:56:29.737Z,49.29
2019-04-04T20:58:56.371Z,49.69
2019-04-04T21:01:23.049Z,49.88
2019-04-04T21:03:49.647Z,50.10
2019-04-04T21:06:16.253Z,50.17
2019-04-04T21:08:43.041Z,50.20
2019-04-04T21:11:09.809Z,50.23
2019-04-04T21:13:36.690Z,50.62
2019-04-04T21:16:03.407Z,50.71
2019-04-04T21:18:29.992Z,51.08
2019-04-04T21:20:56.681Z,51.32
2019-04-04T21:23:24.575Z,51.63
2019-04-04T21:25:51.185Z,51.54
2019-04-04T21:28:17.802Z,51.73
2019-04-04T21:30:44.665Z,52.03
2019-04-04T21:33:12.327Z,51.67
2019-04-04T21:35:39.386Z,51.42
2019-04-04T21:38:09.650Z,51.46
2019-04-04T21:40:40.865Z,50.97
2019-04-04T21:43:09.625Z,51.01
2019-04-04T21:45:39.272Z,51.35
2019-04-04T21:48:07.491Z,51.96
2019-04-04T21:50:38.164Z,52.70
2019-04-04T21:53:06.237Z,52.76
2019-04-04T21:55:32.826Z,52.40
2019-04-04T21:57:59.565Z,52.08
2019-04-04T22:00:28.978Z,52.30
2019-04-04T22:02:59.177Z,52.68
2019-04-04T22:05:28.050Z,52.44
2019-04-04T22:07:57.984Z,52.36
2019-04-04T22:10:28.727Z,52.23
2019-04-04T22:13:02.885Z,52.57
2019-04-04T22:15:26.874Z,52.90
2019-04-04T22:17:55.956Z,52.93
2019-04-04T22:20:25.033Z,53.19
2019-04-04T22:25:53.184Z,53.04
2019-04-04T22:28:23.508Z,53.43
2019-04-04T22:30:51.425Z,53.43
2019-04-04T22:33:20.095Z,53.20
2019-04-04T22:35:50.756Z,53.55
2019-04-04T22:38:17.894Z,53.85
2019-04-04T22:40:45.384Z,54.11
2019-04-04T22:43:14.574Z,54.91
2019-04-04T22:45:44.000Z,55.14
2019-04-04T22:48:12.347Z,55.61
2019-04-04T22:50:40.541Z,55.93
2019-04-04T22:53:08.402Z,55.27
2019-04-04T22:55:37.092Z,54.98
2019-04-04T22:58:05.821Z,55.17
2019-04-04T23:00:33.953Z,55.22
2019-04-04T23:03:00.578Z,55.02
2019-04-04T23:05:27.348Z,55.28
2019-04-04T23:07:56.480Z,55.41
2019-04-04T23:10:25.513Z,55.12
2019-04-04T23:12:54.688Z,55.08
2019-04-04T23:15:21.267Z,54.96
2019-04-04T23:17:50.101Z,54.30
2019-04-04T23:20:17.023Z,54.51
2019-04-04T23:22:53.026Z,54.57
2019-04-04T23:25:12.040Z,54.68
2019-04-04T23:27:38.642Z,55.41
2019-04-04T23:30:05.776Z,56.30
2019-04-04T23:32:32.673Z,57.71
2019-04-04T23:34:59.262Z,58.23
2019-04-04T23:37:25.910Z,58.64
2019-04-04T23:39:52.533Z,58.41
2019-04-04T23:42:19.140Z,57.83
2019-04-04T23:44:59.944Z,56.98
2019-04-04T23:47:15.860Z,56.66
2019-04-04T23:49:42.500Z,57.14
2019-04-04T23:52:09.386Z,57.29
2019-04-04T23:54:36.143Z,57.22
2019-04-04T23:57:02.764Z,56.31
2019-04-04T23:59:29.390Z,56.29
